createdAt,value
2023-02-01T00:00:00.735Z,19.33
2023-02-01T00:02:27.677Z,24.17
2023-02-01T00:04:54.533Z,14.20
2023-02-01T00:07:21.370Z,21.98
2023-02-01T00:09:48.210Z,26.40
2023-02-01T00:12:15.588Z,26.58
2023-02-01T00:14:43.066Z,27.95
2023-02-01T00:17:09.975Z,21.35
2023-02-01T00:19:36.795Z,29.58
2023-02-01T00:22:03.664Z,22.42
2023-02-01T00:24:30.558Z,34.28
2023-02-01T00:26:57.354Z,23.73
2023-02-01T00:29:24.299Z,29.20
2023-02-01T00:31:53.007Z,25.95
2023-02-01T00:34:21.287Z,24.17
2023-02-01T00:36:48.778Z,18.52
2023-02-01T00:39:16.311Z,30.13
2023-02-01T00:41:43.436Z,32.90
2023-02-01T00:44:10.821Z,29.80
2023-02-01T00:46:38.080Z,25.08
2023-02-01T00:49:05.161Z,30.80
2023-02-01T00:51:32.006Z,23.45
2023-02-01T00:53:58.920Z,28.25
2023-02-01T00:56:25.924Z,26.60
2023-02-01T00:58:52.734Z,26.15
2023-02-01T01:01:25.458Z,21.33
2023-02-01T01:04:00.676Z,31.88
2023-02-01T01:06:30.339Z,26.27
2023-02-01T01:08:58.633Z,34.92
2023-02-01T01:11:28.228Z,28.33
2023-02-01T01:13:56.375Z,21.88
2023-02-01T01:16:24.648Z,24.10
2023-02-01T01:18:52.443Z,34.88
2023-02-01T01:21:19.490Z,20.10
2023-02-01T01:23:47.583Z,23.02
2023-02-01T01:26:20.384Z,30.13
2023-02-01T01:28:47.608Z,18.48
2023-02-01T01:31:16.221Z,16.67
2023-02-01T01:33:44.903Z,27.92
2023-02-01T01:36:13.111Z,25.95
2023-02-01T01:38:41.248Z,30.75
2023-02-01T01:41:09.307Z,27.42
2023-02-01T01:44:28.578Z,30.33
2023-02-01T01:46:55.424Z,28.27
2023-02-01T01:49:26.018Z,28.58
2023-02-01T01:52:01.395Z,32.40
2023-02-01T01:54:43.899Z,28.00
2023-02-01T01:59:44.149Z,30.90
2023-02-01T02:02:11.674Z,21.83
2023-02-01T02:04:38.943Z,36.50
2023-02-01T02:07:12.839Z,27.48
2023-02-01T02:09:45.355Z,23.15
2023-02-01T02:12:15.019Z,23.42
2023-02-01T02:14:42.012Z,30.35
2023-02-01T02:17:20.089Z,24.98
2023-02-01T02:20:29.067Z,21.73
2023-02-01T02:23:27.755Z,25.08
2023-02-01T02:26:00.473Z,19.92
2023-02-01T02:28:57.498Z,24.70
2023-02-01T02:32:01.909Z,27.02
2023-02-01T02:34:40.470Z,41.50
2023-02-01T02:37:20.709Z,30.70
2023-02-01T02:40:09.982Z,22.95
2023-02-01T02:43:01.371Z,31.75
2023-02-01T02:46:01.503Z,22.80
2023-02-01T02:48:33.972Z,29.10
2023-02-01T02:51:39.806Z,26.50
2023-02-01T02:54:37.124Z,28.52
2023-02-01T02:57:27.124Z,21.50
2023-02-01T03:00:14.305Z,26.60
2023-02-01T03:02:59.758Z,22.70
2023-02-01T03:05:30.077Z,20.95
2023-02-01T03:08:14.239Z,27.30
2023-02-01T03:10:55.997Z,28.17
2023-02-01T03:13:57.075Z,19.27
2023-02-01T03:16:34.483Z,36.28
2023-02-01T03:19:22.017Z,31.23
2023-02-01T03:22:02.995Z,23.52
2023-02-01T03:24:46.784Z,24.23
2023-02-01T03:27:21.649Z,26.65
2023-02-01T03:30:06.734Z,32.67
2023-02-01T03:32:55.468Z,19.15
2023-02-01T03:35:38.883Z,20.17
2023-02-01T03:38:31.283Z,23.83
2023-02-01T03:41:28.247Z,27.13
2023-02-01T03:44:10.388Z,28.52
2023-02-01T03:46:42.850Z,29.17
2023-02-01T03:51:41.058Z,25.15
2023-02-01T03:54:12.519Z,23.77
2023-02-01T03:56:45.117Z,26.58
2023-02-01T04:01:38.840Z,26.42
2023-02-01T04:04:06.402Z,32.30
2023-02-01T04:06:33.303Z,25.60
2023-02-01T04:09:00.116Z,21.00
2023-02-01T04:11:28.507Z,37.20
2023-02-01T04:13:55.305Z,36.15
2023-02-01T04:16:22.159Z,29.50
2023-02-01T04:18:48.971Z,23.30
2023-02-01T04:21:15.751Z,25.77
2023-02-01T04:23:42.537Z,26.20
2023-02-01T04:26:09.377Z,21.88
2023-02-01T04:28:36.180Z,25.90
2023-02-01T04:31:03.017Z,21.33
2023-02-01T04:33:29.930Z,18.92
2023-02-01T04:35:56.757Z,18.80
2023-02-01T04:38:23.574Z,26.85
2023-02-01T04:40:50.438Z,35.22
2023-02-01T04:43:18.196Z,20.15
2023-02-01T04:45:49.732Z,18.23
2023-02-01T04:48:18.257Z,25.93
2023-02-01T04:50:49.314Z,20.48
2023-02-01T04:53:16.635Z,18.95
2023-02-01T04:55:44.448Z,21.50
2023-02-01T04:58:11.972Z,19.33
2023-02-01T05:00:39.010Z,21.63
2023-02-01T05:03:06.084Z,21.83
2023-02-01T05:05:32.897Z,21.05
2023-02-01T05:07:59.686Z,26.83
2023-02-01T05:10:26.439Z,28.10
2023-02-01T05:13:11.600Z,27.20
2023-02-01T05:15:38.375Z,22.33
2023-02-01T05:18:05.642Z,27.13
2023-02-01T05:20:32.481Z,20.98
2023-02-01T05:22:59.234Z,22.85
2023-02-01T05:25:26.074Z,24.27
2023-02-01T05:27:53.963Z,16.08
2023-02-01T05:30:21.003Z,12.38
2023-02-01T05:32:51.590Z,20.80
2023-02-01T05:35:18.409Z,19.95
2023-02-01T05:37:45.179Z,21.95
2023-02-01T05:40:12.367Z,17.17
2023-02-01T05:42:39.183Z,16.95
2023-02-01T05:45:08.614Z,18.88
2023-02-01T05:47:35.436Z,19.30
2023-02-01T05:50:02.257Z,17.42
2023-02-01T05:52:29.060Z,25.38
2023-02-01T05:54:55.910Z,15.20
2023-02-01T05:57:23.025Z,24.30
2023-02-01T05:59:49.955Z,23.13
2023-02-01T06:02:17.543Z,22.85
2023-02-01T06:04:44.325Z,26.83
2023-02-01T06:07:11.522Z,20.02
2023-02-01T06:09:38.707Z,25.88
2023-02-01T06:12:05.955Z,26.75
2023-02-01T06:14:32.887Z,19.40
2023-02-01T06:16:59.710Z,23.65
2023-02-01T06:19:26.583Z,22.65
2023-02-01T06:21:53.473Z,16.67
2023-02-01T06:24:20.827Z,22.25
2023-02-01T06:26:47.664Z,23.85
2023-02-01T06:29:14.796Z,21.80
2023-02-01T06:31:43.459Z,19.50
2023-02-01T06:34:10.365Z,14.27
2023-02-01T06:36:37.215Z,16.25
2023-02-01T06:39:04.176Z,12.48
2023-02-01T06:41:30.993Z,10.88
2023-02-01T06:43:57.805Z,15.00
2023-02-01T06:46:24.654Z,10.93
2023-02-01T06:48:52.099Z,8.35
2023-02-01T06:51:23.809Z,10.85
2023-02-01T06:53:50.780Z,13.37
2023-02-01T06:56:18.004Z,15.60
2023-02-01T06:58:45.188Z,10.20
2023-02-01T07:01:12.210Z,10.02
2023-02-01T07:03:39.152Z,19.20
2023-02-01T07:06:06.997Z,7.65
2023-02-01T07:08:36.163Z,11.02
2023-02-01T07:11:05.091Z,13.65
2023-02-01T07:13:32.216Z,12.75
2023-02-01T07:16:00.607Z,16.48
2023-02-01T07:18:31.497Z,11.55
2023-02-01T07:20:58.976Z,15.90
2023-02-01T07:23:26.183Z,21.35
2023-02-01T07:26:01.087Z,17.80
2023-02-01T07:28:31.387Z,20.55
2023-02-01T07:31:06.214Z,19.98
2023-02-01T07:33:33.520Z,16.10
2023-02-01T07:36:02.855Z,19.17
2023-02-01T07:38:29.979Z,10.70
2023-02-01T07:41:01.570Z,17.05
2023-02-01T07:43:29.571Z,12.50
2023-02-01T07:45:56.570Z,10.85
2023-02-01T07:48:25.280Z,15.02
2023-02-01T07:51:03.502Z,10.38
2023-02-01T07:53:31.421Z,11.85
2023-02-01T07:55:58.337Z,12.90
2023-02-01T07:58:26.264Z,13.50
2023-02-01T08:01:11.972Z,16.75
2023-02-01T08:03:39.470Z,20.98
2023-02-01T08:06:07.423Z,12.57
2023-02-01T08:08:34.835Z,25.02
2023-02-01T08:11:03.601Z,17.60
2023-02-01T08:13:30.705Z,15.40
2023-02-01T08:16:02.382Z,14.00
2023-02-01T08:18:29.555Z,19.27
2023-02-01T08:20:56.476Z,11.38
2023-02-01T08:23:24.250Z,17.02
2023-02-01T08:25:51.027Z,23.10
2023-02-01T08:28:17.923Z,14.23
2023-02-01T08:30:44.781Z,11.68
2023-02-01T08:33:12.113Z,11.32
2023-02-01T08:35:43.943Z,10.48
2023-02-01T08:38:11.259Z,16.90
2023-02-01T08:40:38.117Z,10.70
2023-02-01T08:43:04.931Z,15.02
2023-02-01T08:45:31.882Z,10.38
2023-02-01T08:47:58.868Z,13.40
2023-02-01T08:50:26.745Z,15.02
2023-02-01T08:52:54.417Z,13.85
2023-02-01T08:55:21.669Z,12.05
2023-02-01T08:57:48.680Z,21.38
2023-02-01T09:00:18.518Z,22.52
2023-02-01T09:02:45.875Z,20.30
2023-02-01T09:05:13.076Z,13.80
2023-02-01T09:07:40.065Z,11.68
2023-02-01T09:10:07.725Z,9.88
2023-02-01T09:12:35.538Z,12.75
2023-02-01T09:15:03.023Z,8.15
2023-02-01T09:17:31.069Z,14.80
2023-02-01T09:19:58.102Z,9.23
2023-02-01T09:22:25.295Z,13.90
2023-02-01T09:24:55.036Z,12.32
2023-02-01T09:27:22.761Z,12.65
2023-02-01T09:29:53.333Z,10.57
2023-02-01T09:32:21.860Z,8.75
2023-02-01T09:34:49.451Z,9.05
2023-02-01T09:37:16.868Z,9.73
2023-02-01T09:39:44.134Z,10.45
2023-02-01T09:42:33.524Z,17.85
2023-02-01T09:45:10.433Z,17.52
2023-02-01T09:47:44.163Z,15.70
2023-02-01T09:50:22.413Z,13.80
2023-02-01T09:53:03.095Z,14.88
2023-02-01T09:55:49.899Z,18.13
2023-02-01T09:58:54.442Z,15.15
2023-02-01T10:01:24.023Z,14.00
2023-02-01T10:03:56.611Z,19.80
